Time;durP1;ratioP1;P1;durP2;ratioP2;P2;SDS_P1;SDS_P2;PMS_P1;PMS_P2;Temp;Humidity;BMP_temperature;BMP_pressure;BME280_temperature;BME280_humidity;BME280_pressure;Samples;Min_cycle;Max_cycle;Signal;HPM_P1;HPM_P2
2022/09/30 00:02:03;;;;;;;;;;;17.30;56.80;;;;;;4993548;28;20289;-73
2022/09/30 00:04:28;;;;;;;;;;;17.40;56.90;;;;;;4992708;28;19910;-74
2022/09/30 00:06:54;;;;;;;;;;;17.30;56.90;;;;;;4992447;28;19969;-74
2022/09/30 00:09:20;;;;;;;;;;;17.40;56.80;;;;;;5006830;28;20365;-73
2022/09/30 00:11:46;;;;;;;;;;;17.40;56.70;;;;;;5013527;28;19956;-73
2022/09/30 00:14:16;;;;;;;;;;;17.40;56.70;;;;;;5012101;28;19945;-73
2022/09/30 00:16:41;;;;;;;;;;;17.50;56.70;;;;;;4995354;28;19913;-73
2022/09/30 00:19:07;;;;;;;;;;;17.40;56.70;;;;;;5013534;28;19914;-74
2022/09/30 00:21:35;;;;;;;;;;;17.40;56.70;;;;;;5012154;28;19910;-73
2022/09/30 00:24:01;;;;;;;;;;;17.40;56.60;;;;;;4995534;28;19917;-73
2022/09/30 00:26:26;;;;;;;;;;;17.40;56.70;;;;;;5011398;28;19909;-73
2022/09/30 00:28:53;;;;;;;;;;;17.30;56.70;;;;;;5013194;28;19911;-73
2022/09/30 00:31:18;;;;;;;;;;;17.40;56.70;;;;;;5011424;28;19963;-72
2022/09/30 00:34:05;;;;;;;;;;;17.40;56.70;;;;;;5011988;28;19917;-73
2022/09/30 00:36:29;;;;;;;;;;;17.40;56.80;;;;;;5012826;28;19921;-73
2022/09/30 00:38:55;;;;;;;;;;;17.50;56.70;;;;;;5012714;28;20242;-73
2022/09/30 00:41:21;;;;;;;;;;;17.50;56.60;;;;;;5011881;28;20443;-73
2022/09/30 00:43:52;;;;;;;;;;;17.50;56.60;;;;;;5013102;28;19910;-73
2022/09/30 00:46:26;;;;;;;;;;;17.40;56.60;;;;;;5017863;28;20020;-73
2022/09/30 00:48:52;;;;;;;;;;;17.40;56.60;;;;;;5012959;28;20361;-73
2022/09/30 00:51:39;;;;;;;;;;;17.40;56.70;;;;;;5011935;28;19914;-73
2022/09/30 00:54:06;;;;;;;;;;;17.40;56.70;;;;;;5011823;28;19913;-73
2022/09/30 00:56:51;;;;;;;;;;;17.40;56.80;;;;;;5011535;28;20012;-73
2022/09/30 00:59:18;;;;;;;;;;;17.40;56.70;;;;;;5012335;28;19909;-73
2022/09/30 01:01:43;;;;;;;;;;;17.40;56.50;;;;;;5012271;28;20270;-73
2022/09/30 01:04:10;;;;;;;;;;;17.40;56.50;;;;;;5012735;28;19920;-74
2022/09/30 01:06:36;;;;;;;;;;;17.40;56.60;;;;;;5011599;28;19921;-73
2022/09/30 01:09:01;;;;;;;;;;;17.40;56.60;;;;;;5011672;28;20047;-73
2022/09/30 01:11:27;;;;;;;;;;;17.40;56.60;;;;;;5011651;28;19910;-73
2022/09/30 01:13:54;;;;;;;;;;;17.40;56.70;;;;;;5011648;28;19968;-72
2022/09/30 01:16:29;;;;;;;;;;;17.40;56.60;;;;;;5011146;28;19967;-73
2022/09/30 01:19:03;;;;;;;;;;;17.40;56.60;;;;;;5011653;28;19945;-73
2022/09/30 01:21:41;;;;;;;;;;;17.40;56.60;;;;;;5013247;28;20003;-73
2022/09/30 01:24:15;;;;;;;;;;;17.40;56.60;;;;;;5012944;28;19910;-73
2022/09/30 01:26:56;;;;;;;;;;;17.40;56.70;;;;;;4994886;28;19965;-73
2022/09/30 01:29:40;;;;;;;;;;;17.30;56.60;;;;;;4995196;28;19969;-73
2022/09/30 01:32:10;;;;;;;;;;;17.30;56.60;;;;;;5012148;28;20392;-74
2022/09/30 01:34:50;;;;;;;;;;;17.30;56.50;;;;;;5011483;28;19964;-73
2022/09/30 01:37:39;;;;;;;;;;;17.30;56.50;;;;;;5012475;28;19909;-73
2022/09/30 01:40:06;;;;;;;;;;;17.40;56.60;;;;;;4988457;28;19921;-73
2022/09/30 01:42:35;;;;;;;;;;;17.40;56.50;;;;;;4996714;28;19910;-73
2022/09/30 01:45:03;;;;;;;;;;;17.40;56.40;;;;;;4996609;28;19910;-74
2022/09/30 01:47:34;;;;;;;;;;;17.50;56.50;;;;;;4996039;28;19909;-73
2022/09/30 01:50:08;;;;;;;;;;;17.40;56.30;;;;;;4996614;28;19914;-74
2022/09/30 01:52:38;;;;;;;;;;;17.40;56.30;;;;;;4995077;28;19913;-73
2022/09/30 01:55:06;;;;;;;;;;;17.50;56.40;;;;;;4995431;28;19921;-73
2022/09/30 01:57:31;;;;;;;;;;;17.50;56.30;;;;;;4996239;28;19910;-74
2022/09/30 02:00:07;;;;;;;;;;;17.50;56.30;;;;;;4996035;28;20048;-73
2022/09/30 02:02:33;;;;;;;;;;;17.50;56.30;;;;;;4994669;28;19981;-74
2022/09/30 02:05:04;;;;;;;;;;;17.50;56.40;;;;;;4995132;28;19926;-74
2022/09/30 02:07:32;;;;;;;;;;;17.50;56.30;;;;;;4978657;28;19917;-74
2022/09/30 02:10:02;;;;;;;;;;;17.50;56.30;;;;;;4998023;28;19910;-72
2022/09/30 02:12:29;;;;;;;;;;;17.40;56.30;;;;;;4998292;28;19909;-73
2022/09/30 02:14:56;;;;;;;;;;;17.40;56.30;;;;;;5015526;28;19983;-74
2022/09/30 02:17:23;;;;;;;;;;;17.40;56.40;;;;;;4997572;28;19913;-74
2022/09/30 02:20:02;;;;;;;;;;;17.40;56.40;;;;;;4981885;28;20376;-73
2022/09/30 02:22:36;;;;;;;;;;;17.40;56.40;;;;;;4981359;28;19921;-72
2022/09/30 02:25:02;;;;;;;;;;;17.40;56.40;;;;;;4998335;28;19909;-74
2022/09/30 02:27:32;;;;;;;;;;;17.40;56.40;;;;;;4997685;28;20121;-73
2022/09/30 02:29:58;;;;;;;;;;;17.40;56.50;;;;;;5014324;28;20281;-74
2022/09/30 02:32:24;;;;;;;;;;;17.30;56.50;;;;;;5013541;28;19988;-73
2022/09/30 02:34:52;;;;;;;;;;;17.30;56.50;;;;;;5013988;28;20384;-73
2022/09/30 02:37:23;;;;;;;;;;;17.40;56.60;;;;;;5013778;28;20479;-73
2022/09/30 02:39:53;;;;;;;;;;;17.40;56.60;;;;;;5013714;28;19921;-73
2022/09/30 02:42:27;;;;;;;;;;;17.30;56.40;;;;;;5013920;28;19917;-73
2022/09/30 02:44:53;;;;;;;;;;;17.30;56.50;;;;;;5021623;28;20000;-73
2022/09/30 02:47:37;;;;;;;;;;;17.30;56.50;;;;;;5013352;28;19917;-73
2022/09/30 02:50:14;;;;;;;;;;;17.40;56.50;;;;;;5014395;28;20396;-74
2022/09/30 02:52:52;;;;;;;;;;;17.40;56.50;;;;;;5014792;28;19952;-73
2022/09/30 02:55:17;;;;;;;;;;;17.40;56.50;;;;;;5014748;28;19909;-72
2022/09/30 02:57:43;;;;;;;;;;;17.40;56.50;;;;;;5014615;28;20326;-73
2022/09/30 03:00:08;;;;;;;;;;;17.40;56.50;;;;;;5014782;28;20453;-73
2022/09/30 03:02:34;;;;;;;;;;;17.30;56.50;;;;;;5014211;28;19914;-73
2022/09/30 03:04:59;;;;;;;;;;;17.40;56.50;;;;;;5013170;28;19917;-73
2022/09/30 03:07:25;;;;;;;;;;;17.30;56.40;;;;;;4996882;28;19914;-72
2022/09/30 03:09:54;;;;;;;;;;;17.40;56.40;;;;;;5014283;28;20316;-72
2022/09/30 03:12:26;;;;;;;;;;;17.30;56.40;;;;;;5014417;28;19921;-73
2022/09/30 03:15:30;;;;;;;;;;;17.30;56.40;;;;;;5013292;28;19913;-74
2022/09/30 03:17:59;;;;;;;;;;;17.30;56.40;;;;;;4956904;28;20021;-73
2022/09/30 03:20:31;;;;;;;;;;;17.30;56.40;;;;;;4953861;29;19941;-73
2022/09/30 03:23:17;;;;;;;;;;;17.30;56.40;;;;;;4974580;28;19917;-73
2022/09/30 03:26:01;;;;;;;;;;;17.40;56.40;;;;;;4964267;28;20325;-73
2022/09/30 03:28:28;;;;;;;;;;;17.30;56.40;;;;;;4994607;28;19914;-73
2022/09/30 03:31:00;;;;;;;;;;;17.40;56.40;;;;;;4994090;28;19948;-72
2022/09/30 03:33:30;;;;;;;;;;;17.40;56.40;;;;;;4993518;28;20004;-74
2022/09/30 03:35:59;;;;;;;;;;;17.40;56.30;;;;;;4993006;28;20298;-73
2022/09/30 03:38:43;;;;;;;;;;;17.40;56.30;;;;;;5000194;28;19913;-73
2022/09/30 03:41:26;;;;;;;;;;;17.40;56.20;;;;;;5012620;28;19918;-72
2022/09/30 03:43:52;;;;;;;;;;;17.40;56.10;;;;;;4996482;28;19952;-73
2022/09/30 03:46:20;;;;;;;;;;;17.50;56.10;;;;;;5013403;28;19977;-74
2022/09/30 03:48:46;;;;;;;;;;;17.40;56.10;;;;;;5014181;28;19910;-73
2022/09/30 03:51:12;;;;;;;;;;;17.40;56.20;;;;;;4996106;28;19917;-73
2022/09/30 03:53:38;;;;;;;;;;;17.40;56.20;;;;;;4996216;28;20305;-73
2022/09/30 03:56:04;;;;;;;;;;;17.40;56.20;;;;;;4995977;28;19910;-73
2022/09/30 03:58:29;;;;;;;;;;;17.40;56.20;;;;;;5013642;28;19913;-73
2022/09/30 04:00:56;;;;;;;;;;;17.40;56.10;;;;;;4995032;28;19921;-74
2022/09/30 04:03:21;;;;;;;;;;;17.40;56.10;;;;;;4995415;28;20373;-73
2022/09/30 04:05:47;;;;;;;;;;;17.40;56.00;;;;;;5013296;28;19921;-74
2022/09/30 04:08:12;;;;;;;;;;;17.40;56.10;;;;;;5013447;28;19910;-72
2022/09/30 04:10:38;;;;;;;;;;;17.40;56.10;;;;;;5028623;28;20439;-71
2022/09/30 04:13:04;;;;;;;;;;;17.40;56.20;;;;;;5013546;28;20487;-73
2022/09/30 04:15:29;;;;;;;;;;;17.30;56.20;;;;;;5013506;28;19909;-72
2022/09/30 04:17:55;;;;;;;;;;;17.30;56.20;;;;;;5011455;28;19952;-73
2022/09/30 04:20:20;;;;;;;;;;;17.30;56.30;;;;;;5013320;28;19920;-73
2022/09/30 04:22:46;;;;;;;;;;;17.30;56.30;;;;;;5011923;28;19909;-74
2022/09/30 04:25:11;;;;;;;;;;;17.30;56.30;;;;;;5013151;28;20332;-73
2022/09/30 04:27:37;;;;;;;;;;;17.30;56.30;;;;;;5028493;28;20293;-74
2022/09/30 04:30:03;;;;;;;;;;;17.30;56.40;;;;;;5011899;28;20056;-73
2022/09/30 04:32:29;;;;;;;;;;;17.30;56.40;;;;;;5027886;28;19913;-73
2022/09/30 04:34:54;;;;;;;;;;;17.30;56.40;;;;;;5028461;28;20009;-73
2022/09/30 04:37:20;;;;;;;;;;;17.30;56.40;;;;;;5028269;28;19916;-73
2022/09/30 04:39:45;;;;;;;;;;;17.30;56.40;;;;;;5012937;28;20011;-73
2022/09/30 04:42:11;;;;;;;;;;;17.30;56.30;;;;;;5028405;28;19909;-74
2022/09/30 04:44:36;;;;;;;;;;;17.30;56.30;;;;;;5013089;28;19913;-73
2022/09/30 04:47:01;;;;;;;;;;;17.30;56.20;;;;;;5027514;28;19910;-73
2022/09/30 04:49:27;;;;;;;;;;;17.30;56.40;;;;;;5028354;28;20009;-73
2022/09/30 04:51:53;;;;;;;;;;;17.30;56.40;;;;;;5011702;28;19910;-74
2022/09/30 04:54:18;;;;;;;;;;;17.30;56.30;;;;;;5028304;28;20261;-72
2022/09/30 04:56:43;;;;;;;;;;;17.30;56.30;;;;;;5012699;28;19913;-73
2022/09/30 04:59:09;;;;;;;;;;;17.30;56.30;;;;;;5012115;28;19913;-72
2022/09/30 05:01:35;;;;;;;;;;;17.30;56.20;;;;;;4994952;28;20004;-72
2022/09/30 05:04:00;;;;;;;;;;;17.30;56.20;;;;;;5012840;28;19909;-73
2022/09/30 05:06:26;;;;;;;;;;;17.30;56.20;;;;;;5011246;28;19925;-73
2022/09/30 05:08:51;;;;;;;;;;;17.30;56.30;;;;;;5012531;28;20413;-73
2022/09/30 05:11:17;;;;;;;;;;;17.30;56.30;;;;;;5027876;28;19909;-73
2022/09/30 05:13:43;;;;;;;;;;;17.30;56.20;;;;;;5014586;28;19977;-73
2022/09/30 05:16:08;;;;;;;;;;;17.30;56.20;;;;;;5031590;28;19914;-73
2022/09/30 05:18:34;;;;;;;;;;;17.30;56.10;;;;;;5031927;28;19925;-72
2022/09/30 05:21:01;;;;;;;;;;;17.30;56.10;;;;;;5031797;28;19917;-73
2022/09/30 05:23:27;;;;;;;;;;;17.30;56.10;;;;;;5031591;28;19909;-73
2022/09/30 05:25:52;;;;;;;;;;;17.30;56.10;;;;;;5031541;28;19914;-72
2022/09/30 05:28:18;;;;;;;;;;;17.30;56.20;;;;;;5016496;28;19929;-73
2022/09/30 05:30:45;;;;;;;;;;;17.30;56.10;;;;;;5031317;28;19920;-73
2022/09/30 05:33:10;;;;;;;;;;;17.30;56.10;;;;;;5015175;28;19916;-73
2022/09/30 05:35:36;;;;;;;;;;;17.30;56.10;;;;;;5016244;28;19914;-72
2022/09/30 05:38:04;;;;;;;;;;;17.30;56.00;;;;;;5016128;28;19913;-73
2022/09/30 05:40:30;;;;;;;;;;;17.30;56.00;;;;;;5030971;28;19925;-74
2022/09/30 05:42:56;;;;;;;;;;;17.30;56.00;;;;;;5031349;28;19966;-74
2022/09/30 05:45:22;;;;;;;;;;;17.30;56.10;;;;;;5031488;28;20000;-73
2022/09/30 05:47:53;;;;;;;;;;;17.30;56.10;;;;;;5017776;28;19914;-74
2022/09/30 05:50:19;;;;;;;;;;;17.30;56.10;;;;;;5014929;28;20397;-73
2022/09/30 05:52:45;;;;;;;;;;;17.30;56.10;;;;;;5015886;28;19921;-74
2022/09/30 05:55:10;;;;;;;;;;;17.30;56.10;;;;;;5014619;28;19910;-73
2022/09/30 05:57:35;;;;;;;;;;;17.40;56.10;;;;;;5014703;28;19909;-73
2022/09/30 06:00:01;;;;;;;;;;;17.30;55.90;;;;;;5015648;28;19913;-73
2022/09/30 06:02:26;;;;;;;;;;;17.30;56.00;;;;;;5015467;28;19910;-73
2022/09/30 06:04:52;;;;;;;;;;;17.30;56.00;;;;;;5015607;28;19910;-73
2022/09/30 06:07:17;;;;;;;;;;;17.30;56.00;;;;;;4998096;28;19921;-73
2022/09/30 06:09:44;;;;;;;;;;;17.30;56.10;;;;;;5015642;28;19916;-73
2022/09/30 06:12:10;;;;;;;;;;;17.30;56.10;;;;;;5015597;28;20293;-73
2022/09/30 06:14:36;;;;;;;;;;;17.30;56.10;;;;;;5030992;28;19909;-73
2022/09/30 06:17:01;;;;;;;;;;;17.30;56.10;;;;;;5015250;28;19976;-72
2022/09/30 06:19:27;;;;;;;;;;;17.30;56.20;;;;;;5030829;28;19932;-74
2022/09/30 06:21:53;;;;;;;;;;;17.20;56.10;;;;;;5014004;28;20365;-73
2022/09/30 06:24:18;;;;;;;;;;;17.20;56.20;;;;;;5014783;28;19980;-73
2022/09/30 06:26:44;;;;;;;;;;;17.20;56.40;;;;;;5014924;28;19952;-73
2022/09/30 06:29:09;;;;;;;;;;;17.20;56.40;;;;;;5030730;28;19914;-73
2022/09/30 06:31:35;;;;;;;;;;;17.20;56.30;;;;;;5013727;28;19956;-73
2022/09/30 06:34:00;;;;;;;;;;;17.20;56.30;;;;;;5015397;28;19917;-73
2022/09/30 06:36:27;;;;;;;;;;;17.20;56.20;;;;;;5014995;28;20293;-73
2022/09/30 06:38:53;;;;;;;;;;;17.20;56.20;;;;;;5015148;28;19909;-73
2022/09/30 06:41:18;;;;;;;;;;;17.20;56.20;;;;;;5015017;28;19924;-73
2022/09/30 06:43:44;;;;;;;;;;;17.20;56.30;;;;;;5030668;28;19914;-73
2022/09/30 06:46:11;;;;;;;;;;;17.20;56.40;;;;;;5014496;28;19910;-73
2022/09/30 06:48:36;;;;;;;;;;;17.20;56.20;;;;;;5015287;28;20375;-72
2022/09/30 06:51:02;;;;;;;;;;;17.20;56.20;;;;;;5030060;28;19909;-73
2022/09/30 06:53:28;;;;;;;;;;;17.20;56.30;;;;;;5030204;28;19933;-73
2022/09/30 06:55:54;;;;;;;;;;;17.20;56.20;;;;;;5013857;28;19909;-73
2022/09/30 06:58:21;;;;;;;;;;;17.20;56.30;;;;;;5013506;28;19914;-72
2022/09/30 07:00:54;;;;;;;;;;;17.20;56.40;;;;;;5014345;28;19914;-73
2022/09/30 07:03:22;;;;;;;;;;;17.20;56.40;;;;;;5014475;28;19956;-73
2022/09/30 07:05:53;;;;;;;;;;;17.20;56.50;;;;;;5029749;28;20385;-73
2022/09/30 07:08:18;;;;;;;;;;;17.20;56.40;;;;;;5027098;28;19920;-73
2022/09/30 07:10:45;;;;;;;;;;;17.20;56.50;;;;;;5014510;28;19913;-73
2022/09/30 07:13:13;;;;;;;;;;;17.20;56.50;;;;;;4996982;28;19910;-73
2022/09/30 07:15:40;;;;;;;;;;;17.20;56.40;;;;;;5014089;28;19913;-73
2022/09/30 07:18:06;;;;;;;;;;;17.20;56.40;;;;;;4996828;28;19944;-74
2022/09/30 07:20:32;;;;;;;;;;;17.20;56.40;;;;;;5014416;28;19920;-72
2022/09/30 07:22:58;;;;;;;;;;;17.20;56.40;;;;;;5014212;28;20121;-72
2022/09/30 07:25:23;;;;;;;;;;;17.20;57.00;;;;;;4996819;28;19957;-73
2022/09/30 07:27:49;;;;;;;;;;;17.20;56.40;;;;;;5014012;28;19918;-71
2022/09/30 07:30:14;;;;;;;;;;;17.30;56.40;;;;;;5014270;28;19921;-73
2022/09/30 07:32:40;;;;;;;;;;;17.30;56.30;;;;;;5013571;28;19916;-74
2022/09/30 07:35:06;;;;;;;;;;;17.30;56.30;;;;;;5014235;28;19909;-74
2022/09/30 07:37:34;;;;;;;;;;;17.30;56.30;;;;;;4996052;28;19910;-74
2022/09/30 07:40:00;;;;;;;;;;;17.30;56.30;;;;;;5012707;28;19917;-73
2022/09/30 07:42:26;;;;;;;;;;;17.30;56.20;;;;;;4980146;28;20458;-74
2022/09/30 07:44:52;;;;;;;;;;;17.30;56.20;;;;;;4996507;28;19917;-73
2022/09/30 07:47:18;;;;;;;;;;;17.30;56.30;;;;;;5013456;28;19951;-72
2022/09/30 07:49:43;;;;;;;;;;;17.30;57.00;;;;;;4996367;28;19949;-74
2022/09/30 07:52:09;;;;;;;;;;;17.30;56.40;;;;;;5013651;28;19913;-73
2022/09/30 07:54:35;;;;;;;;;;;17.30;56.40;;;;;;4996351;28;20389;-73
2022/09/30 07:57:01;;;;;;;;;;;17.30;56.40;;;;;;5013727;28;19909;-73
2022/09/30 07:59:26;;;;;;;;;;;17.30;56.30;;;;;;4996152;28;19909;-74
2022/09/30 08:01:52;;;;;;;;;;;17.30;56.40;;;;;;4979446;28;20382;-73
2022/09/30 08:04:18;;;;;;;;;;;17.30;56.40;;;;;;5013444;28;19910;-73
2022/09/30 08:06:45;;;;;;;;;;;17.30;56.40;;;;;;4995484;28;19925;-72
2022/09/30 08:09:10;;;;;;;;;;;17.30;56.40;;;;;;5013492;28;19920;-74
2022/09/30 08:11:36;;;;;;;;;;;17.30;56.40;;;;;;4995886;28;19989;-73
2022/09/30 08:14:01;;;;;;;;;;;17.30;56.40;;;;;;5013250;28;19964;-73
2022/09/30 08:16:27;;;;;;;;;;;17.30;56.40;;;;;;4975731;28;19961;-74
2022/09/30 08:18:56;;;;;;;;;;;17.30;56.40;;;;;;4993869;28;19909;-73
2022/09/30 08:21:21;;;;;;;;;;;17.30;56.30;;;;;;4992284;28;19913;-72
2022/09/30 08:23:47;;;;;;;;;;;17.30;56.50;;;;;;4992662;28;19996;-74
2022/09/30 08:26:13;;;;;;;;;;;17.30;56.50;;;;;;4992262;28;19957;-73
2022/09/30 08:28:39;;;;;;;;;;;17.30;56.50;;;;;;4992350;28;19964;-73
2022/09/30 08:31:04;;;;;;;;;;;17.30;56.50;;;;;;4991757;28;19918;-73
2022/09/30 08:33:30;;;;;;;;;;;17.30;56.50;;;;;;4993529;28;19910;-72
2022/09/30 08:35:55;;;;;;;;;;;17.30;56.50;;;;;;4993228;28;20377;-73
2022/09/30 08:38:21;;;;;;;;;;;17.30;56.40;;;;;;4999677;28;19910;-73
2022/09/30 08:40:52;;;;;;;;;;;17.40;56.50;;;;;;5013090;28;19914;-73
2022/09/30 08:43:20;;;;;;;;;;;17.30;56.30;;;;;;5028481;28;19937;-74
2022/09/30 08:45:59;;;;;;;;;;;17.30;56.30;;;;;;5011240;28;19909;-73
2022/09/30 08:48:37;;;;;;;;;;;17.40;56.40;;;;;;5031493;28;19967;-73
2022/09/30 08:51:15;;;;;;;;;;;17.40;56.40;;;;;;5034747;28;19921;-73
2022/09/30 08:53:41;;;;;;;;;;;17.30;56.40;;;;;;5019501;28;19940;-72
2022/09/30 08:56:06;;;;;;;;;;;17.30;56.60;;;;;;5019362;28;19967;-73
2022/09/30 08:58:33;;;;;;;;;;;17.30;56.60;;;;;;5034768;28;20284;-73
2022/09/30 09:01:04;;;;;;;;;;;17.30;56.50;;;;;;5018815;28;19917;-74
2022/09/30 09:03:30;;;;;;;;;;;17.30;56.60;;;;;;5034557;28;19929;-74
2022/09/30 09:05:55;;;;;;;;;;;17.30;56.80;;;;;;5034442;28;19929;-72
2022/09/30 09:08:27;;;;;;;;;;;17.20;56.80;;;;;;5019260;28;19940;-74
2022/09/30 09:10:54;;;;;;;;;;;17.20;56.90;;;;;;5034509;28;20284;-73
2022/09/30 09:13:32;;;;;;;;;;;17.20;56.80;;;;;;5034765;28;19920;-74
2022/09/30 09:16:03;;;;;;;;;;;17.20;56.90;;;;;;5018789;28;19949;-73
2022/09/30 09:18:40;;;;;;;;;;;17.20;57.00;;;;;;5019508;28;19913;-73
2022/09/30 09:21:15;;;;;;;;;;;17.20;57.00;;;;;;5017900;28;19913;-73
2022/09/30 09:23:40;;;;;;;;;;;17.30;57.10;;;;;;5019464;28;20267;-73
2022/09/30 09:26:07;;;;;;;;;;;17.30;57.10;;;;;;5034449;28;19917;-74
2022/09/30 09:28:41;;;;;;;;;;;17.30;57.00;;;;;;5034553;28;19917;-73
2022/09/30 09:31:12;;;;;;;;;;;17.30;57.00;;;;;;5034127;28;20353;-74
2022/09/30 09:33:40;;;;;;;;;;;17.30;57.00;;;;;;5041008;28;19910;-73
2022/09/30 09:36:13;;;;;;;;;;;17.30;57.00;;;;;;5033981;28;20380;-73
2022/09/30 09:38:38;;;;;;;;;;;17.30;57.00;;;;;;5029083;28;20416;-73
2022/09/30 09:41:22;;;;;;;;;;;17.40;56.90;;;;;;5019018;28;19921;-73
2022/09/30 09:43:55;;;;;;;;;;;17.40;56.90;;;;;;5019122;28;19910;-73
2022/09/30 09:46:23;;;;;;;;;;;17.40;56.70;;;;;;5001029;28;19959;-73
2022/09/30 09:48:49;;;;;;;;;;;17.50;56.90;;;;;;5019101;28;20435;-73
2022/09/30 09:51:27;;;;;;;;;;;17.40;56.70;;;;;;5001553;28;19914;-73
2022/09/30 09:53:56;;;;;;;;;;;17.40;56.80;;;;;;5001426;28;19960;-73
2022/09/30 09:56:25;;;;;;;;;;;17.50;56.80;;;;;;4997905;28;19941;-74
2022/09/30 09:59:04;;;;;;;;;;;17.40;56.80;;;;;;4997877;28;19916;-73
2022/09/30 10:01:32;;;;;;;;;;;17.50;56.70;;;;;;4995648;28;20009;-73
2022/09/30 10:04:12;;;;;;;;;;;17.50;56.80;;;;;;4996151;28;19957;-73
2022/09/30 10:06:44;;;;;;;;;;;17.50;56.70;;;;;;4994403;28;19921;-72
2022/09/30 10:09:26;;;;;;;;;;;17.40;56.70;;;;;;5007823;28;19935;-73
2022/09/30 10:12:11;;;;;;;;;;;17.50;56.90;;;;;;5014438;28;19945;-73
2022/09/30 10:14:50;;;;;;;;;;;17.40;56.90;;;;;;5015704;28;20365;-73
2022/09/30 10:17:19;;;;;;;;;;;17.40;56.90;;;;;;5020562;28;19915;-72
2022/09/30 10:19:52;;;;;;;;;;;17.40;57.00;;;;;;5014081;28;19917;-73
2022/09/30 10:22:18;;;;;;;;;;;17.40;57.10;;;;;;5014341;28;20465;-73
2022/09/30 10:24:43;;;;;;;;;;;17.40;57.20;;;;;;5015671;28;20301;-73
2022/09/30 10:27:25;;;;;;;;;;;17.30;57.20;;;;;;5015244;28;19932;-73
2022/09/30 10:29:50;;;;;;;;;;;17.30;57.30;;;;;;5015398;28;19910;-74
2022/09/30 10:32:16;;;;;;;;;;;17.30;57.30;;;;;;5013771;28;19909;-72
2022/09/30 10:34:41;;;;;;;;;;;17.30;57.40;;;;;;5015577;28;19967;-74
2022/09/30 10:37:07;;;;;;;;;;;17.30;57.60;;;;;;5015026;28;19945;-74
2022/09/30 10:39:34;;;;;;;;;;;17.30;57.60;;;;;;5013864;28;19918;-74
2022/09/30 10:42:07;;;;;;;;;;;17.30;57.60;;;;;;5015042;28;20430;-73
2022/09/30 10:44:35;;;;;;;;;;;17.30;57.60;;;;;;5014050;28;19909;-73
2022/09/30 10:47:01;;;;;;;;;;;17.30;57.70;;;;;;5013233;28;20369;-73
2022/09/30 10:49:27;;;;;;;;;;;17.30;57.70;;;;;;5013960;28;19916;-73
2022/09/30 10:51:53;;;;;;;;;;;17.30;57.70;;;;;;5015182;28;19909;-73
2022/09/30 10:54:33;;;;;;;;;;;17.30;57.60;;;;;;5013837;28;19913;-74
2022/09/30 10:57:02;;;;;;;;;;;17.40;57.70;;;;;;5013536;28;19910;-73
2022/09/30 10:59:35;;;;;;;;;;;17.40;58.30;;;;;;5013727;28;20373;-74
2022/09/30 11:02:19;;;;;;;;;;;17.30;57.60;;;;;;5013118;28;19910;-73
2022/09/30 11:05:08;;;;;;;;;;;17.40;57.80;;;;;;5014978;28;20346;-73
2022/09/30 11:07:37;;;;;;;;;;;17.40;57.70;;;;;;5006506;28;19963;-72
2022/09/30 11:10:21;;;;;;;;;;;17.40;57.70;;;;;;5013584;28;19949;-74
2022/09/30 11:13:07;;;;;;;;;;;17.50;57.70;;;;;;5014327;28;20657;-73
2022/09/30 11:15:36;;;;;;;;;;;17.50;57.60;;;;;;5004117;28;19917;-73
2022/09/30 11:18:04;;;;;;;;;;;17.40;57.60;;;;;;5013080;28;19917;-72
2022/09/30 11:20:31;;;;;;;;;;;17.50;57.70;;;;;;5013393;28;20012;-73
2022/09/30 11:23:04;;;;;;;;;;;17.50;57.80;;;;;;5013353;28;19916;-73
2022/09/30 11:25:36;;;;;;;;;;;17.40;57.70;;;;;;5013257;28;19920;-73
2022/09/30 11:28:10;;;;;;;;;;;17.50;57.70;;;;;;5014244;28;20342;-73
2022/09/30 11:30:42;;;;;;;;;;;17.50;57.70;;;;;;5014278;28;19916;-74
2022/09/30 11:33:17;;;;;;;;;;;17.50;57.60;;;;;;5013208;28;19910;-73
2022/09/30 11:35:54;;;;;;;;;;;17.50;57.50;;;;;;5014179;28;19952;-72
2022/09/30 11:38:38;;;;;;;;;;;17.50;57.50;;;;;;5014282;28;20350;-73
2022/09/30 11:41:16;;;;;;;;;;;17.50;57.50;;;;;;5014084;28;19914;-73
2022/09/30 11:43:41;;;;;;;;;;;17.60;57.50;;;;;;5029460;28;20344;-73
2022/09/30 11:46:26;;;;;;;;;;;17.60;57.40;;;;;;5013650;28;19957;-73
2022/09/30 11:48:57;;;;;;;;;;;17.70;57.30;;;;;;5014030;28;19945;-73
2022/09/30 11:51:51;;;;;;;;;;;17.70;57.30;;;;;;5013865;28;19909;-73
2022/09/30 11:54:26;;;;;;;;;;;17.60;57.30;;;;;;5000907;28;19914;-73
2022/09/30 11:57:03;;;;;;;;;;;17.60;57.30;;;;;;5014107;28;20289;-72
2022/09/30 11:59:30;;;;;;;;;;;17.70;57.20;;;;;;5029007;28;20286;-73
2022/09/30 12:01:57;;;;;;;;;;;17.70;57.20;;;;;;5028419;28;20335;-71
2022/09/30 12:04:22;;;;;;;;;;;17.70;57.20;;;;;;5013608;28;19956;-74
2022/09/30 12:06:49;;;;;;;;;;;17.70;57.30;;;;;;5013335;28;19922;-73
2022/09/30 12:09:22;;;;;;;;;;;17.70;57.30;;;;;;5018357;28;19914;-74
2022/09/30 12:11:49;;;;;;;;;;;17.70;57.30;;;;;;4979830;28;20362;-73
2022/09/30 12:14:17;;;;;;;;;;;17.80;57.40;;;;;;4995917;28;19913;-74
2022/09/30 12:16:43;;;;;;;;;;;17.70;57.40;;;;;;5013085;28;19916;-73
2022/09/30 12:19:17;;;;;;;;;;;17.70;57.40;;;;;;5013462;28;19913;-74
2022/09/30 12:21:52;;;;;;;;;;;17.60;57.40;;;;;;5013145;28;19972;-74
2022/09/30 12:24:36;;;;;;;;;;;17.70;57.50;;;;;;4995271;28;19915;-73
2022/09/30 12:27:02;;;;;;;;;;;17.60;57.60;;;;;;4976254;28;19909;-74
2022/09/30 12:32:23;;;;;;;;;;;17.60;57.70;;;;;;4992150;28;19992;-73
2022/09/30 12:34:52;;;;;;;;;;;17.60;57.70;;;;;;4992259;28;19964;-74
2022/09/30 12:37:23;;;;;;;;;;;17.60;57.70;;;;;;4992126;28;19910;-73
2022/09/30 12:39:49;;;;;;;;;;;17.70;57.80;;;;;;5011421;28;19913;-73
2022/09/30 12:42:17;;;;;;;;;;;17.60;57.60;;;;;;5013239;28;19913;-73
2022/09/30 12:44:50;;;;;;;;;;;17.60;57.70;;;;;;5013334;28;20285;-72
2022/09/30 12:47:30;;;;;;;;;;;17.70;57.90;;;;;;5027698;28;19945;-73
2022/09/30 12:49:56;;;;;;;;;;;17.70;57.70;;;;;;5028248;28;19910;-74
2022/09/30 12:52:22;;;;;;;;;;;17.70;57.70;;;;;;5011608;28;19972;-73
2022/09/30 12:54:50;;;;;;;;;;;17.80;57.70;;;;;;5013025;28;19913;-73
2022/09/30 12:57:17;;;;;;;;;;;17.70;57.40;;;;;;5028117;28;19916;-73
2022/09/30 13:00:02;;;;;;;;;;;17.70;57.50;;;;;;5028229;28;19910;-73
2022/09/30 13:02:30;;;;;;;;;;;17.70;57.60;;;;;;5011065;28;20405;-73
2022/09/30 13:05:16;;;;;;;;;;;17.70;57.80;;;;;;5027888;28;19967;-74
2022/09/30 13:07:58;;;;;;;;;;;17.70;57.80;;;;;;5012691;28;20000;-74
2022/09/30 13:10:24;;;;;;;;;;;17.80;57.90;;;;;;4995320;28;19914;-74
2022/09/30 13:12:52;;;;;;;;;;;17.80;57.70;;;;;;4995279;28;20436;-73
2022/09/30 13:15:27;;;;;;;;;;;17.80;57.70;;;;;;4995287;28;19909;-74
2022/09/30 13:17:52;;;;;;;;;;;17.80;57.60;;;;;;5012496;28;20351;-74
2022/09/30 13:20:36;;;;;;;;;;;17.80;57.60;;;;;;5011477;28;20012;-74
2022/09/30 13:23:02;;;;;;;;;;;17.70;57.60;;;;;;5012768;28;20288;-74
2022/09/30 13:25:30;;;;;;;;;;;17.70;57.70;;;;;;4995581;28;19916;-74
2022/09/30 13:28:25;;;;;;;;;;;17.70;57.70;;;;;;5011682;28;19956;-74
2022/09/30 13:30:52;;;;;;;;;;;17.80;57.80;;;;;;4994672;28;20189;-73
2022/09/30 13:33:26;;;;;;;;;;;17.80;57.80;;;;;;5011254;28;19916;-74
2022/09/30 13:35:51;;;;;;;;;;;17.70;57.60;;;;;;5015201;28;19996;-74
2022/09/30 13:38:23;;;;;;;;;;;17.70;57.50;;;;;;5015043;28;19949;-74
2022/09/30 13:41:08;;;;;;;;;;;17.80;57.60;;;;;;5014947;28;19913;-73
2022/09/30 13:43:41;;;;;;;;;;;17.80;57.50;;;;;;5015026;28;19917;-74
2022/09/30 13:46:10;;;;;;;;;;;17.80;57.50;;;;;;5014679;28;19909;-73
2022/09/30 13:48:35;;;;;;;;;;;17.80;57.50;;;;;;4998498;28;19910;-74
2022/09/30 13:51:03;;;;;;;;;;;17.80;57.60;;;;;;5014668;28;19937;-73
2022/09/30 13:53:34;;;;;;;;;;;17.80;57.50;;;;;;5015986;28;20005;-73
2022/09/30 13:56:00;;;;;;;;;;;17.80;57.40;;;;;;5014926;28;19917;-74
2022/09/30 13:58:28;;;;;;;;;;;17.80;57.50;;;;;;4998318;28;19964;-73
2022/09/30 14:00:56;;;;;;;;;;;17.80;57.40;;;;;;5015404;28;19936;-74
2022/09/30 14:03:40;;;;;;;;;;;17.80;57.30;;;;;;5014678;28;19971;-73
2022/09/30 14:06:25;;;;;;;;;;;17.80;57.40;;;;;;5015324;28;19921;-74
2022/09/30 14:08:51;;;;;;;;;;;17.80;57.40;;;;;;5015592;28;19910;-73
2022/09/30 14:11:29;;;;;;;;;;;17.90;57.50;;;;;;5015681;28;19917;-73
2022/09/30 14:14:04;;;;;;;;;;;17.90;57.50;;;;;;5014515;28;20377;-73
2022/09/30 14:16:48;;;;;;;;;;;17.90;57.40;;;;;;5030742;28;19948;-73
2022/09/30 14:19:27;;;;;;;;;;;17.90;57.30;;;;;;5015472;28;19910;-74
2022/09/30 14:21:56;;;;;;;;;;;17.90;57.30;;;;;;5030699;28;20377;-73
2022/09/30 14:24:25;;;;;;;;;;;17.90;57.30;;;;;;5030771;28;19910;-73
2022/09/30 14:27:00;;;;;;;;;;;17.90;57.40;;;;;;5030465;28;19910;-73
2022/09/30 14:29:28;;;;;;;;;;;17.90;57.40;;;;;;5015436;28;19917;-73
2022/09/30 14:31:54;;;;;;;;;;;18.00;57.40;;;;;;5014921;28;20312;-74
2022/09/30 14:34:20;;;;;;;;;;;18.00;57.40;;;;;;5030490;28;20385;-71